createdAt,value
2018-04-10T00:02:13.165Z,64.34
2018-04-10T00:04:42.292Z,64.46
2018-04-10T00:07:11.368Z,64.07
2018-04-10T00:09:39.696Z,64.30
2018-04-10T00:12:08.068Z,64.10
2018-04-10T00:14:36.424Z,64.73
2018-04-10T00:17:04.744Z,65.01
2018-04-10T00:19:33.075Z,65.15
2018-04-10T00:22:01.423Z,65.44
2018-04-10T00:24:30.506Z,65.89
2018-04-10T00:26:59.624Z,66.11
2018-04-10T00:29:38.424Z,65.97
2018-04-10T00:32:07.534Z,66.07
2018-04-10T00:34:36.676Z,66.30
2018-04-10T00:37:04.988Z,66.55
2018-04-10T00:39:33.302Z,66.68
2018-04-10T00:42:01.656Z,67.09
2018-04-10T00:44:30.748Z,67.45
2018-04-10T00:46:59.875Z,67.87
2018-04-10T00:49:28.199Z,67.92
2018-04-10T00:51:56.559Z,67.93
2018-04-10T00:54:24.899Z,67.97
2018-04-10T00:56:53.265Z,68.10
2018-04-10T00:59:21.587Z,67.64
2018-04-10T01:01:49.927Z,67.48
2018-04-10T01:04:18.293Z,66.96
2018-04-10T01:06:47.405Z,67.44
2018-04-10T01:09:15.745Z,67.60
2018-04-10T01:11:44.099Z,67.25
2018-04-10T01:14:12.451Z,67.27
2018-04-10T01:16:40.786Z,67.17
2018-04-10T01:19:09.922Z,67.24
2018-04-10T01:21:38.258Z,67.91
2018-04-10T01:24:07.341Z,67.94
2018-04-10T01:26:35.704Z,67.94
2018-04-10T01:29:04.053Z,67.83
2018-04-10T01:31:32.412Z,68.23
2018-04-10T01:34:00.735Z,68.10
2018-04-10T01:36:29.076Z,68.18
2018-04-10T01:38:57.394Z,68.33
2018-04-10T01:41:29.913Z,68.53
2018-04-10T01:43:58.216Z,68.52
2018-04-10T01:46:26.590Z,68.70
2018-04-10T01:48:54.918Z,68.81
2018-04-10T01:51:23.251Z,69.08
2018-04-10T01:53:51.611Z,69.38
2018-04-10T01:56:20.699Z,69.51
2018-04-10T01:58:49.041Z,69.84
2018-04-10T02:01:17.367Z,69.26
2018-04-10T02:03:45.747Z,69.31
2018-04-10T02:06:14.108Z,69.80
2018-04-10T02:08:42.842Z,69.26
2018-04-10T02:11:34.515Z,68.84
2018-04-10T02:14:26.559Z,68.97
2018-04-10T02:17:18.235Z,68.85
2018-04-10T02:19:47.203Z,69.17
2018-04-10T02:22:15.551Z,69.16
2018-04-10T02:24:43.879Z,68.50
2018-04-10T02:27:12.219Z,68.78
2018-04-10T02:29:40.531Z,68.65
2018-04-10T02:32:09.291Z,68.27
2018-04-10T02:34:37.643Z,67.96
2018-04-10T02:37:05.981Z,68.14
2018-04-10T02:39:34.329Z,68.24
2018-04-10T02:42:13.288Z,68.64
2018-04-10T02:44:41.992Z,69.26
2018-04-10T02:47:11.078Z,68.87
2018-04-10T02:49:39.427Z,69.31
2018-04-10T02:52:07.751Z,69.61
2018-04-10T02:54:36.104Z,69.81
2018-04-10T02:57:04.463Z,69.64
2018-04-10T02:59:32.837Z,69.56
2018-04-10T03:02:01.141Z,69.77
2018-04-10T03:04:29.470Z,69.57
2018-04-10T03:06:57.813Z,69.63
2018-04-10T03:09:26.915Z,69.77
2018-04-10T03:11:55.272Z,70.22
2018-04-10T03:14:24.341Z,70.31
2018-04-10T03:16:52.683Z,70.60
2018-04-10T03:19:21.029Z,70.88
2018-04-10T03:21:50.119Z,70.77
2018-04-10T03:24:19.246Z,71.32
2018-04-10T03:26:47.554Z,71.32
2018-04-10T03:29:15.891Z,71.74
2018-04-10T03:31:44.217Z,72.00
2018-04-10T03:34:12.569Z,71.84
2018-04-10T03:36:40.921Z,72.10
2018-04-10T03:39:09.279Z,72.58
2018-04-10T03:41:38.411Z,72.84
2018-04-10T03:44:06.715Z,73.04
2018-04-10T03:46:35.079Z,73.26
2018-04-10T03:49:03.427Z,73.55
2018-04-10T03:51:31.776Z,73.68
2018-04-10T03:54:00.855Z,73.91
2018-04-10T03:56:29.591Z,74.50
2018-04-10T03:58:57.927Z,74.59
2018-04-10T04:01:26.266Z,74.64
2018-04-10T04:03:54.595Z,74.66
2018-04-10T04:06:23.675Z,74.97
2018-04-10T04:08:52.059Z,74.94
2018-04-10T04:11:20.399Z,75.11
2018-04-10T04:13:48.910Z,75.10
2018-04-10T04:16:34.975Z,75.48
2018-04-10T04:19:20.955Z,75.54
2018-04-10T04:24:57.615Z,75.84
2018-04-10T04:27:25.942Z,75.85
2018-04-10T04:29:54.316Z,75.92
2018-04-10T04:32:22.643Z,75.56
2018-04-10T04:34:51.043Z,75.49
2018-04-10T04:37:21.082Z,75.31
2018-04-10T04:39:49.433Z,75.45
2018-04-10T04:42:17.754Z,75.38
2018-04-10T04:44:46.126Z,75.39
2018-04-10T04:47:14.440Z,75.14
2018-04-10T04:49:43.523Z,74.42
2018-04-10T04:52:11.884Z,74.39
2018-04-10T04:54:40.208Z,74.32
2018-04-10T04:57:08.554Z,74.40
2018-04-10T04:59:37.170Z,74.24
2018-04-10T05:02:05.449Z,74.10
2018-04-10T05:04:33.765Z,73.88
2018-04-10T05:07:02.363Z,73.50
2018-04-10T05:09:30.685Z,73.52
2018-04-10T05:11:59.038Z,73.42
2018-04-10T05:14:28.112Z,73.29
2018-04-10T05:16:56.470Z,73.08
2018-04-10T05:19:24.796Z,72.78
2018-04-10T05:21:54.045Z,72.52
2018-04-10T05:24:22.418Z,72.44
2018-04-10T05:26:51.174Z,72.27
2018-04-10T05:29:19.493Z,72.14
2018-04-10T05:31:47.819Z,72.08
2018-04-10T05:34:17.534Z,71.59
2018-04-10T05:36:45.855Z,71.53
2018-04-10T05:39:14.193Z,71.40
2018-04-10T05:41:42.593Z,71.33
2018-04-10T05:44:10.928Z,71.26
2018-04-10T05:46:40.070Z,71.25
2018-04-10T05:49:08.402Z,71.08
2018-04-10T05:51:37.884Z,70.92
2018-04-10T05:54:06.221Z,70.75
2018-04-10T05:56:35.942Z,70.30
2018-04-10T05:59:04.274Z,69.80
2018-04-10T06:01:33.944Z,69.56
2018-04-10T06:04:02.376Z,69.15
2018-04-10T06:06:31.430Z,68.92
2018-04-10T06:08:59.774Z,68.59
2018-04-10T06:11:28.100Z,68.37
2018-04-10T06:13:57.225Z,68.12
2018-04-10T06:16:25.541Z,67.82
2018-04-10T06:18:53.884Z,67.73
2018-04-10T06:21:22.985Z,67.51
2018-04-10T06:23:51.342Z,67.25
2018-04-10T06:26:19.691Z,66.99
2018-04-10T06:28:48.036Z,66.90
2018-04-10T06:31:16.380Z,66.71
2018-04-10T06:33:44.684Z,66.46
2018-04-10T06:36:13.018Z,65.81
2018-04-10T06:38:42.143Z,65.70
2018-04-10T06:41:10.471Z,65.45
2018-04-10T06:43:38.805Z,64.86
2018-04-10T06:46:07.151Z,64.81
2018-04-10T06:48:36.266Z,64.36
2018-04-10T06:51:04.632Z,63.90
2018-04-10T06:53:32.950Z,63.95
2018-04-10T06:56:01.303Z,63.63
2018-04-10T06:58:29.654Z,63.63
2018-04-10T07:00:58.744Z,63.42
2018-04-10T07:03:27.846Z,63.39
2018-04-10T07:05:56.954Z,63.09
2018-04-10T07:08:25.292Z,62.63
2018-04-10T07:10:53.644Z,62.03
2018-04-10T07:13:21.995Z,61.47
2018-04-10T07:15:50.366Z,61.01
2018-04-10T07:18:18.683Z,60.78
2018-04-10T07:20:47.042Z,60.62
2018-04-10T07:23:15.357Z,59.94
2018-04-10T07:25:43.724Z,60.11
2018-04-10T07:28:12.081Z,59.75
2018-04-10T07:30:40.837Z,59.38
2018-04-10T07:33:09.576Z,59.37
2018-04-10T07:35:37.921Z,58.77
2018-04-10T07:38:06.290Z,58.79
2018-04-10T07:40:34.598Z,58.68
2018-04-10T07:43:02.972Z,58.20
2018-04-10T07:45:31.285Z,57.92
2018-04-10T07:47:59.651Z,57.77
2018-04-10T07:50:28.005Z,58.10
2018-04-10T07:52:56.341Z,57.60
2018-04-10T07:55:24.686Z,57.30
2018-04-10T07:57:53.004Z,56.58
2018-04-10T08:00:21.345Z,55.77
2018-04-10T08:02:49.713Z,55.12
2018-04-10T08:05:18.028Z,54.90
2018-04-10T08:07:46.374Z,54.70
2018-04-10T08:10:14.765Z,54.07
2018-04-10T08:12:43.873Z,54.33
2018-04-10T08:15:13.018Z,54.08
2018-04-10T08:17:41.378Z,53.97
2018-04-10T08:20:10.103Z,53.84
2018-04-10T08:22:38.453Z,53.70
2018-04-10T08:25:06.833Z,53.14
2018-04-10T08:27:35.152Z,53.19
2018-04-10T08:30:04.259Z,52.86
2018-04-10T08:32:32.647Z,52.21
2018-04-10T08:35:01.016Z,52.22
2018-04-10T08:37:29.392Z,51.85
2018-04-10T08:39:58.492Z,51.33
2018-04-10T08:42:27.609Z,51.72
2018-04-10T08:44:55.971Z,51.39
2018-04-10T08:47:24.327Z,51.32
2018-04-10T08:49:53.445Z,50.31
2018-04-10T08:52:21.797Z,50.79
2018-04-10T08:54:50.935Z,50.27
2018-04-10T08:57:19.254Z,49.78
2018-04-10T08:59:47.611Z,48.38
2018-04-10T09:02:15.979Z,48.28
2018-04-10T09:04:44.335Z,47.10
2018-04-10T09:07:12.644Z,46.89
2018-04-10T09:09:40.971Z,46.85
2018-04-10T09:12:10.083Z,45.51
2018-04-10T09:14:38.422Z,45.08
2018-04-10T09:17:06.761Z,43.44
2018-04-10T09:19:35.113Z,43.26
2018-04-10T09:22:03.443Z,42.29
2018-04-10T09:24:31.815Z,41.48
2018-04-10T09:27:00.148Z,40.63
2018-04-10T09:29:28.480Z,38.25
2018-04-10T09:31:56.825Z,39.02
2018-04-10T09:34:25.187Z,38.79
2018-04-10T09:36:53.543Z,38.59
2018-04-10T09:39:22.639Z,38.49
2018-04-10T09:41:51.763Z,37.89
2018-04-10T09:44:20.092Z,37.82
2018-04-10T09:46:49.213Z,38.41
2018-04-10T09:49:17.515Z,37.80
2018-04-10T09:51:45.875Z,37.80
2018-04-10T09:54:14.213Z,38.08
2018-04-10T09:56:42.522Z,38.37
2018-04-10T09:59:10.866Z,37.83
2018-04-10T10:01:39.209Z,37.84
2018-04-10T10:04:07.567Z,36.44
2018-04-10T10:06:35.949Z,37.22
2018-04-10T10:09:04.316Z,36.87
2018-04-10T10:11:32.694Z,37.07
2018-04-10T10:14:01.036Z,36.84
2018-04-10T10:16:29.365Z,36.56
2018-04-10T10:18:57.725Z,37.22
2018-04-10T10:21:26.073Z,37.37
2018-04-10T10:23:55.191Z,37.09
2018-04-10T10:26:24.296Z,37.15
2018-04-10T10:28:52.606Z,36.64
2018-04-10T10:31:20.963Z,37.42
2018-04-10T10:33:49.301Z,37.10
2018-04-10T10:36:18.419Z,37.07
2018-04-10T10:38:46.724Z,37.31
2018-04-10T10:41:15.062Z,37.04
2018-04-10T10:43:44.183Z,37.00
2018-04-10T10:46:12.540Z,36.91
2018-04-10T10:48:40.877Z,36.91
2018-04-10T10:51:09.212Z,35.37
2018-04-10T10:53:37.544Z,35.59
2018-04-10T10:56:06.652Z,35.92
2018-04-10T10:58:35.736Z,36.49
2018-04-10T11:01:04.145Z,35.57
2018-04-10T11:03:33.257Z,35.93
2018-04-10T11:06:01.580Z,35.48
2018-04-10T11:08:29.956Z,35.58
2018-04-10T11:10:58.331Z,35.32
2018-04-10T11:13:26.648Z,35.72
2018-04-10T11:15:55.020Z,35.34
2018-04-10T11:18:23.413Z,35.66
2018-04-10T11:20:51.743Z,35.69
2018-04-10T11:23:20.120Z,35.30
2018-04-10T11:25:48.440Z,35.31
2018-04-10T11:28:16.777Z,35.85
2018-04-10T11:30:45.060Z,35.82
2018-04-10T11:33:13.783Z,35.31
2018-04-10T11:35:42.090Z,35.50
2018-04-10T11:38:10.453Z,34.71
2018-04-10T11:40:39.150Z,34.52
2018-04-10T11:43:07.467Z,34.57
2018-04-10T11:45:35.810Z,34.03
2018-04-10T11:48:04.108Z,34.36
2018-04-10T11:50:32.465Z,35.46
2018-04-10T11:53:00.900Z,36.23
2018-04-10T11:55:29.252Z,36.70
2018-04-10T11:57:57.631Z,36.90
2018-04-10T12:00:25.957Z,37.07
2018-04-10T12:02:54.291Z,37.14
2018-04-10T12:05:23.429Z,36.14
2018-04-10T12:07:52.145Z,36.10
2018-04-10T12:10:20.475Z,35.85
2018-04-10T12:12:48.805Z,35.74
2018-04-10T12:15:17.144Z,35.85
2018-04-10T12:17:45.484Z,35.67
2018-04-10T12:20:14.563Z,36.01
2018-04-10T12:22:42.930Z,36.67
2018-04-10T12:25:11.271Z,36.13
2018-04-10T12:27:39.646Z,36.49
2018-04-10T12:30:07.989Z,35.91
2018-04-10T12:32:37.085Z,36.47
2018-04-10T12:35:06.220Z,36.15
2018-04-10T12:37:34.556Z,36.11
2018-04-10T12:40:03.692Z,35.96
2018-04-10T12:42:32.068Z,35.30
2018-04-10T12:45:00.376Z,34.70
2018-04-10T12:47:28.736Z,34.28
2018-04-10T12:49:57.071Z,34.42
2018-04-10T12:52:26.181Z,33.26
2018-04-10T12:54:54.497Z,33.49
2018-04-10T12:57:22.855Z,33.30
2018-04-10T12:59:51.199Z,32.97
2018-04-10T13:02:19.581Z,32.59
2018-04-10T13:04:48.012Z,32.00
2018-04-10T13:07:16.325Z,31.61
2018-04-10T13:09:44.649Z,30.12
2018-04-10T13:12:13.011Z,29.10
2018-04-10T13:14:41.331Z,29.46
2018-04-10T13:17:09.679Z,29.14
2018-04-10T13:19:38.035Z,29.21
2018-04-10T13:22:06.329Z,26.88
2018-04-10T13:24:34.706Z,26.56
2018-04-10T13:27:03.043Z,26.40
2018-04-10T13:29:32.178Z,26.46
2018-04-10T13:32:00.474Z,26.78
2018-04-10T13:34:28.850Z,26.77
2018-04-10T13:36:57.179Z,26.81
2018-04-10T13:39:26.271Z,26.72
2018-04-10T13:41:55.381Z,28.71
2018-04-10T13:44:23.681Z,29.90
2018-04-10T13:46:52.055Z,30.38
2018-04-10T13:49:20.379Z,29.38
2018-04-10T13:51:48.709Z,29.16
2018-04-10T13:54:17.095Z,29.17
2018-04-10T13:56:45.409Z,29.27
2018-04-10T13:59:13.725Z,29.07
2018-04-10T14:01:42.078Z,28.82
2018-04-10T14:04:10.423Z,28.46
2018-04-10T14:06:38.777Z,27.73
2018-04-10T14:09:07.118Z,27.95
2018-04-10T14:11:36.214Z,28.35
2018-04-10T14:14:05.401Z,27.48
2018-04-10T14:16:33.747Z,27.20
2018-04-10T14:19:02.192Z,27.01
2018-04-10T14:21:30.555Z,27.33
2018-04-10T14:23:58.883Z,28.47
2018-04-10T14:26:27.247Z,29.08
2018-04-10T14:28:55.570Z,29.09
2018-04-10T14:31:24.668Z,27.09
2018-04-10T14:33:53.804Z,26.82
2018-04-10T14:36:22.154Z,27.28
2018-04-10T14:38:51.283Z,27.72
2018-04-10T14:41:19.615Z,26.92
2018-04-10T14:43:48.763Z,26.56
2018-04-10T14:46:17.095Z,26.83
2018-04-10T14:48:46.716Z,27.21
2018-04-10T14:51:15.793Z,27.95
2018-04-10T14:53:44.932Z,26.81
2018-04-10T14:56:13.245Z,26.08
2018-04-10T14:58:41.615Z,24.78
2018-04-10T15:01:09.981Z,24.93
2018-04-10T15:03:38.338Z,25.32
2018-04-10T15:06:06.686Z,26.26
2018-04-10T15:08:35.811Z,26.29
2018-04-10T15:11:04.146Z,26.33
2018-04-10T15:13:33.229Z,26.12
2018-04-10T15:16:01.587Z,24.94
2018-04-10T15:18:29.900Z,24.58
2018-04-10T15:20:59.002Z,24.51
2018-04-10T15:23:28.142Z,24.47
2018-04-10T15:25:56.520Z,24.44
2018-04-10T15:28:24.825Z,24.02
2018-04-10T15:30:53.945Z,24.40
2018-04-10T15:33:22.436Z,24.69
2018-04-10T15:35:50.835Z,24.82
2018-04-10T15:38:19.247Z,24.24
2018-04-10T15:40:47.709Z,24.36
2018-04-10T15:43:16.072Z,24.55
2018-04-10T15:45:44.408Z,24.75
2018-04-10T15:48:13.497Z,25.34
2018-04-10T15:50:42.615Z,25.19
2018-04-10T15:53:11.699Z,25.77
2018-04-10T15:55:42.556Z,26.33
2018-04-10T15:58:11.844Z,26.14
2018-04-10T16:00:40.203Z,25.95
2018-04-10T16:03:09.321Z,26.05
2018-04-10T16:05:37.641Z,26.60
2018-04-10T16:08:05.981Z,26.29
2018-04-10T16:10:34.305Z,26.08
2018-04-10T16:13:03.446Z,25.96
2018-04-10T16:15:34.000Z,25.69
2018-04-10T16:18:02.483Z,25.85
2018-04-10T16:20:31.588Z,25.93
2018-04-10T16:22:59.904Z,26.17
2018-04-10T16:25:28.240Z,26.53
2018-04-10T16:27:57.353Z,26.48
2018-04-10T16:30:25.712Z,26.93
2018-04-10T16:32:54.821Z,27.44
2018-04-10T16:35:23.167Z,27.31
2018-04-10T16:37:51.484Z,27.58
2018-04-10T16:40:19.830Z,27.56
2018-04-10T16:42:48.955Z,27.91
2018-04-10T16:45:17.292Z,28.13
2018-04-10T16:47:45.619Z,27.96
2018-04-10T16:50:13.985Z,28.33
2018-04-10T16:52:42.352Z,28.26
2018-04-10T16:55:10.705Z,28.61
2018-04-10T16:57:39.015Z,28.82
2018-04-10T17:00:07.334Z,29.12
2018-04-10T17:02:36.457Z,29.59
2018-04-10T17:05:04.819Z,29.82
2018-04-10T17:07:33.143Z,30.04
2018-04-10T17:10:01.510Z,30.34
2018-04-10T17:12:29.897Z,30.73
2018-04-10T17:14:58.228Z,31.00
2018-04-10T17:17:26.547Z,30.98
2018-04-10T17:19:54.916Z,31.05
2018-04-10T17:22:23.304Z,31.39
2018-04-10T17:24:51.678Z,31.63
2018-04-10T17:27:19.983Z,31.86
2018-04-10T17:29:48.356Z,32.16
2018-04-10T17:32:16.774Z,32.43
2018-04-10T17:34:45.135Z,32.77
2018-04-10T17:37:14.205Z,33.08
2018-04-10T17:39:42.597Z,33.53
2018-04-10T17:42:10.923Z,33.93
2018-04-10T17:44:39.276Z,34.12
2018-04-10T17:47:07.637Z,34.53
2018-04-10T17:49:37.572Z,34.38
2018-04-10T17:52:05.956Z,34.41
2018-04-10T17:54:34.298Z,34.49
2018-04-10T17:57:02.714Z,35.25
2018-04-10T17:59:31.834Z,35.57
2018-04-10T18:02:00.185Z,36.39
2018-04-10T18:04:28.499Z,36.26
2018-04-10T18:06:56.839Z,36.74
2018-04-10T18:09:26.081Z,36.81
2018-04-10T18:11:54.500Z,37.11
2018-04-10T18:14:22.824Z,37.28
2018-04-10T18:16:51.165Z,37.44
2018-04-10T18:19:19.500Z,37.42
2018-04-10T18:24:22.432Z,38.42
2018-04-10T18:26:51.522Z,38.97
2018-04-10T18:29:20.667Z,38.66
2018-04-10T18:31:49.027Z,38.98
2018-04-10T18:34:17.414Z,38.77
2018-04-10T18:36:46.596Z,38.77
2018-04-10T18:39:15.013Z,39.05
2018-04-10T18:41:43.361Z,39.16
2018-04-10T18:44:11.749Z,39.13
2018-04-10T18:46:40.260Z,39.08
2018-04-10T18:49:09.003Z,39.71
2018-04-10T18:51:37.458Z,39.45
2018-04-10T18:54:06.572Z,39.81
2018-04-10T18:56:34.984Z,39.69
2018-04-10T18:59:03.463Z,39.37
2018-04-10T19:01:31.818Z,39.70
2018-04-10T19:04:00.196Z,39.71
2018-04-10T19:06:28.748Z,39.78
2018-04-10T19:08:59.484Z,39.51
2018-04-10T19:11:29.263Z,39.54
2018-04-10T19:13:58.142Z,39.10
2018-04-10T19:16:30.839Z,38.73
2018-04-10T19:19:00.868Z,38.90
2018-04-10T19:21:29.363Z,39.34
2018-04-10T19:23:59.469Z,38.74
2018-04-10T19:26:28.071Z,38.84
2018-04-10T19:28:57.119Z,39.01
2018-04-10T19:31:25.491Z,39.02
2018-04-10T19:33:53.872Z,38.83
2018-04-10T19:36:22.342Z,38.52
2018-04-10T19:38:54.614Z,38.62
2018-04-10T19:41:23.119Z,38.85
2018-04-10T19:43:52.716Z,37.99
2018-04-10T19:46:24.335Z,38.18
2018-04-10T19:48:54.344Z,38.41
2018-04-10T19:51:23.831Z,38.54
2018-04-10T19:53:54.405Z,38.66
2018-04-10T19:56:24.139Z,38.69
2018-04-10T19:58:55.189Z,38.41
2018-04-10T20:01:24.378Z,38.20
2018-04-10T20:03:52.797Z,37.98
2018-04-10T20:06:21.334Z,38.09
2018-04-10T20:08:50.494Z,38.28
2018-04-10T20:11:18.908Z,38.52
2018-04-10T20:13:48.326Z,38.78
2018-04-10T20:16:16.729Z,38.93
2018-04-10T20:18:45.105Z,39.10
2018-04-10T20:21:14.262Z,39.06
2018-04-10T20:23:44.452Z,38.97
2018-04-10T20:26:12.826Z,39.07
2018-04-10T20:31:31.420Z,38.77
2018-04-10T20:33:59.875Z,38.80
2018-04-10T20:36:28.245Z,38.97
2018-04-10T20:38:56.633Z,39.21
2018-04-10T20:41:25.022Z,39.27
2018-04-10T20:43:53.363Z,39.17
2018-04-10T20:46:22.499Z,39.40
2018-04-10T20:48:50.810Z,39.34
2018-04-10T20:51:19.164Z,39.43
2018-04-10T20:53:47.510Z,39.51
2018-04-10T20:56:15.866Z,39.69
2018-04-10T20:58:45.027Z,39.76
2018-04-10T21:01:13.383Z,39.61
2018-04-10T21:03:41.768Z,39.79
2018-04-10T21:06:10.116Z,39.24
2018-04-10T21:08:38.515Z,39.43
2018-04-10T21:11:07.296Z,40.15
2018-04-10T21:13:35.651Z,40.59
2018-04-10T21:16:05.050Z,40.96
2018-04-10T21:18:34.188Z,41.35
2018-04-10T21:21:02.524Z,41.44
2018-04-10T21:23:31.668Z,41.69
2018-04-10T21:25:59.998Z,42.25
2018-04-10T21:28:28.388Z,42.25
2018-04-10T21:30:56.746Z,42.22
2018-04-10T21:33:25.870Z,42.40
2018-04-10T21:35:54.212Z,42.64
2018-04-10T21:38:23.350Z,42.49
2018-04-10T21:40:51.692Z,42.75
2018-04-10T21:43:26.360Z,42.91
2018-04-10T21:45:54.687Z,42.91
2018-04-10T21:48:23.831Z,43.16
2018-04-10T21:50:52.163Z,43.09
2018-04-10T21:53:21.297Z,43.20
2018-04-10T21:55:49.671Z,43.24
2018-04-10T21:58:17.991Z,43.43
2018-04-10T22:00:46.395Z,43.44
2018-04-10T22:03:15.503Z,43.62
2018-04-10T22:05:43.836Z,43.74
2018-04-10T22:08:12.191Z,43.81
2018-04-10T22:10:40.521Z,44.07
2018-04-10T22:13:09.862Z,44.26
2018-04-10T22:15:38.181Z,44.51
2018-04-10T22:18:06.553Z,44.38
2018-04-10T22:20:34.889Z,44.49
2018-04-10T22:23:04.000Z,45.28
2018-04-10T22:25:32.761Z,45.21
2018-04-10T22:28:01.079Z,45.68
2018-04-10T22:30:29.404Z,45.46
2018-04-10T22:32:57.666Z,45.78
2018-04-10T22:35:26.795Z,46.83
2018-04-10T22:37:55.186Z,46.91
2018-04-10T22:40:23.552Z,47.24
2018-04-10T22:42:51.871Z,47.63
2018-04-10T22:45:20.991Z,47.95
2018-04-10T22:47:49.346Z,47.96
2018-04-10T22:50:18.448Z,47.88
2018-04-10T22:52:46.956Z,47.84
2018-04-10T22:55:15.276Z,48.24
2018-04-10T22:57:43.605Z,48.28
2018-04-10T23:00:11.942Z,48.34
2018-04-10T23:02:41.035Z,48.79
2018-04-10T23:05:09.401Z,48.58
2018-04-10T23:07:37.746Z,48.64
2018-04-10T23:10:06.126Z,48.78
2018-04-10T23:12:34.470Z,48.60
2018-04-10T23:15:03.586Z,48.87
2018-04-10T23:17:31.949Z,48.95
2018-04-10T23:20:01.063Z,48.89
2018-04-10T23:22:29.426Z,48.87
2018-04-10T23:24:58.518Z,48.78
2018-04-10T23:27:27.636Z,48.79
2018-04-10T23:29:55.985Z,48.98
2018-04-10T23:32:24.349Z,49.28
2018-04-10T23:34:52.666Z,49.19
2018-04-10T23:37:21.787Z,49.12
2018-04-10T23:39:50.149Z,49.02
2018-04-10T23:42:18.472Z,49.07
2018-04-10T23:44:46.827Z,48.85
2018-04-10T23:47:15.179Z,49.23
2018-04-10T23:49:43.559Z,49.49
2018-04-10T23:52:11.873Z,49.66
2018-04-10T23:54:40.235Z,49.51
2018-04-10T23:57:08.542Z,49.37
2018-04-10T23:59:36.919Z,49.83
